Terminal Aerodrome Forecast
Issued by NWS

Home | Current Version | Previous Version | Text Only | Print | Product List | Glossary On
Versions: 1 2 3 4 5 6 7 8 9 10 11 12 13 14
906
FTUS44 KTSA 272328
TAFMLC
TAF
KMLC 272328Z 2800/2824 15009G16KT P6SM OVC011
     FM280200 18010KT 4SM BR BKN015
     FM281500 19012G18KT P6SM OVC015
     FM281800 20016G26KT P6SM SCT030 BKN250=

USA.gov is the U.S. government's official web portal to all federal, state and local government web resources and services.